Flight Track Log - Related Links

Times and Time Zones

All times are in EDT time to prevent confusion due to time zone crossing. See the N877PM flight status page for this flight to view local times or setup timezone preferences in your user account.

Time Position Orientation Groundspeed Altitude Reporting Facility
EDT Latitude Longitude Course Direction KTS MPH feet Rate Location/Type
Sat 01:08:41 PM 34.9222 -85.1839 145° Southeast 151 174 5,700  Level Atlanta Center
Sat 01:09:41 PM 34.8786 -85.1503 148° Southeast 164 189 7,300 1,550 Climbing Atlanta Center
Sat 01:10:41 PM 34.8311 -85.1142 148° Southeast 179 206 8,800 1,600 Climbing Atlanta Center
Sat 01:11:41 PM 34.7833 -85.0756 146° Southeast 201 231 10,500 1,750 Climbing Atlanta Center
Sat 01:12:00 PM 34.5438 -84.9950 145° Southeast  Level Estimated
Sat 01:12:41 PM 34.7336 -85.0397 149° Southeast 206 237 12,300  Level Atlanta Center
Sat 01:13:41 PM 34.6839 -85.0011 147° Southeast 206 237 13,700 1,350 Climbing Atlanta Center
Sat 01:14:41 PM 34.6339 -84.9578 145° Southeast 212 244 15,000 1,300 Climbing Atlanta Center
Sat 01:15:41 PM 34.5842 -84.9219 149° Southeast 212 244 16,300 1,300 Climbing Atlanta Center
Sat 01:16:41 PM 34.5303 -84.8783 146° Southeast 217 250 17,600 1,100 Climbing Atlanta Center
Sat 01:17:41 PM 34.4825 -84.8400 147° Southeast 217 250 18,500 900 Climbing Atlanta Center
Sat 01:18:41 PM 34.4286 -84.8019 150° Southeast 217 250 19,400 950 Climbing Atlanta Center
Sat 01:19:41 PM 34.3725 -84.7586 147° Southeast 223 257 20,400 950 Climbing Atlanta Center
Sat 01:20:41 PM 34.3164 -84.7128 146° Southeast 228 262 21,300 950 Climbing Atlanta Center
Sat 01:21:41 PM 34.2581 -84.6697 149° Southeast 233 268 22,300 950 Climbing Atlanta Center
Sat 01:22:41 PM 34.2019 -84.6292 149° Southeast 233 268 23,200 1,000 Climbing Atlanta Center
Sat 01:23:41 PM 34.1458 -84.5861 148° Southeast 238 274 24,300 1,000 Climbing Atlanta Center
Sat 01:24:41 PM 34.0917 -84.5431 147° Southeast 243 280 25,200 950 Climbing Atlanta Center
Sat 01:25:41 PM 34.0250 -84.4950 149° Southeast 248 285 26,200 1,000 Climbing Atlanta Center
Sat 01:26:41 PM 33.9667 -84.4519 149° Southeast 248 285 27,200 950 Climbing Atlanta Center
Sat 01:27:41 PM 33.9086 -84.4067 147° Southeast 248 285 28,100 900 Climbing Atlanta Center
Sat 01:28:41 PM 33.8481 -84.3589 147° Southeast 248 285 29,000 850 Climbing Atlanta Center
Sat 01:29:41 PM 33.7856 -84.3136 149° Southeast 253 291 29,800 850 Climbing Atlanta Center
Sat 01:30:41 PM 33.7189 -84.2686 151° Southeast 253 291 30,700 850 Climbing Atlanta Center
Sat 01:31:41 PM 33.6564 -84.2211 148° Southeast 264 304 31,500 800 Climbing Atlanta Center
Sat 01:32:41 PM 33.5917 -84.1711 147° Southeast 273 314 32,300 800 Climbing Atlanta Center
Sat 01:33:41 PM 33.5292 -84.1236 148° Southeast 273 314 33,100 750 Climbing Atlanta Center
Sat 01:34:41 PM 33.4644 -84.0761 149° Southeast 273 314 33,800 700 Climbing Atlanta Center
Sat 01:35:41 PM 33.4019 -84.0289 148° Southeast 273 314 34,500 700 Climbing Atlanta Center
Sat 01:36:41 PM 33.3331 -83.9767 148° Southeast 273 314 35,200 700 Climbing Atlanta Center
Sat 01:37:41 PM 33.2681 -83.9294 149° Southeast 273 314 35,900 400 Climbing Atlanta Center
Sat 01:38:41 PM 33.2075 -83.8872 150° Southeast 273 314 36,000 50 Climbing Atlanta Center
Sat 01:39:41 PM 33.1325 -83.8281 147° Southeast 297 342 36,000  Level Atlanta Center
Sat 01:40:41 PM 33.0508 -83.7636 147° Southeast 316 364 36,000  Level Atlanta Center
Sat 01:41:41 PM 32.9692 -83.7022 148° Southeast 327 376 36,000  Level Atlanta Center
Sat 01:43:46 PM 32.8078 -83.5822 148° Southeast 345 397 36,000  Level Jacksonville Center
Sat 01:44:46 PM 32.7225 -83.5197 148° Southeast 345 397 36,000  Level Jacksonville Center
Sat 01:45:46 PM 32.6372 -83.4575 148° Southeast 352 405 36,000  Level Jacksonville Center
Sat 01:46:46 PM 32.5539 -83.3978 149° Southeast 352 405 36,000  Level Jacksonville Center
Sat 01:47:46 PM 32.4686 -83.3333 147° Southeast 359 413 36,000  Level Jacksonville Center
Sat 01:48:46 PM 32.3811 -83.2714 149° Southeast 359 413 36,000  Level Jacksonville Center
Sat 01:49:46 PM 32.2978 -83.2097 148° Southeast 359 413 36,000  Level Jacksonville Center
Sat 01:50:46 PM 32.2039 -83.1406 148° Southeast 359 413 36,000  Level Jacksonville Center
Sat 01:51:46 PM 32.1183 -83.0789 149° Southeast 359 413 36,000  Level Jacksonville Center
Sat 01:52:46 PM 32.0328 -83.0150 148° Southeast 359 413 36,000  Level Jacksonville Center
Sat 01:53:46 PM 31.9472 -82.9564 150° Southeast 359 413 36,000  Level Jacksonville Center
Sat 01:54:46 PM 31.8617 -82.8925 148° Southeast 359 413 36,000  Level Jacksonville Center
Sat 01:55:46 PM 31.7739 -82.8314 149° Southeast 359 413 36,000  Level Jacksonville Center
Sat 01:56:46 PM 31.6906 -82.7706 148° Southeast 359 413 36,000  Level Jacksonville Center
Sat 01:57:46 PM 31.6028 -82.7097 149° Southeast 359 413 36,000  Level Jacksonville Center
Sat 01:58:46 PM 31.5169 -82.6489 149° Southeast 359 413 36,000  Level Jacksonville Center
Sat 01:59:46 PM 31.4292 -82.5906 150° Southeast 359 413 36,000  Level Jacksonville Center
Sat 02:00:46 PM 31.3456 -82.5375 152° Southeast 353 406 36,000  Level Jacksonville Center
Sat 02:01:46 PM 31.2617 -82.4744 147° Southeast 353 406 36,000  Level Jacksonville Center
Sat 02:02:46 PM 31.1781 -82.4094 146° Southeast 359 413 36,000  Level Jacksonville Center
Sat 02:03:46 PM 31.0900 -82.3492 150° Southeast 359 413 36,000  Level Jacksonville Center
Sat 02:04:46 PM 31.0042 -82.2892 149° Southeast 359 413 36,000  Level Jacksonville Center
Sat 02:05:46 PM 30.9203 -82.2292 148° Southeast 359 413 36,000  Level Jacksonville Center
Sat 02:06:46 PM 30.8325 -82.1692 150° Southeast 359 413 36,000  Level Jacksonville Center
Sat 02:07:46 PM 30.7464 -82.1069 148° Southeast 359 413 36,000  Level Jacksonville Center
Sat 02:08:46 PM 30.6625 -82.0472 149° Southeast 359 413 36,000  Level Jacksonville Center
Sat 02:09:46 PM 30.5953 -82.0019 150° Southeast 359 413 36,000  Level Jacksonville Center
Sat 02:10:46 PM 30.4925 -81.9283 148° Southeast 352 405 36,000  Level Jacksonville Center
Sat 02:11:46 PM 30.4106 -81.8689 148° Southeast 363 418 36,000  Level Jacksonville Center
Sat 02:12:46 PM 30.3244 -81.8097 149° Southeast 363 418 36,000 -50 Level Jacksonville Center
Sat 02:13:46 PM 30.2447 -81.7408 143° Southeast 363 418 35,900  Descending Jacksonville Center
Sat 02:14:46 PM 30.1894 -81.6333 121° Southeast 351 404 36,000 50 Climbing Jacksonville Center
Sat 02:15:46 PM 30.1422 -81.5306 118° Southeast 351 404 36,000  Level Jacksonville Center
Sat 02:16:46 PM 30.1139 -81.4231 107° East 356 410 36,000  Level Jacksonville Center
Sat 02:17:46 PM 30.0689 -81.3228 117° Southeast 356 410 36,000  Level Jacksonville Center
Sat 02:18:46 PM 30.0239 -81.2181 116° Southeast 361 415 36,000  Level Jacksonville Center
Sat 02:19:46 PM 29.9786 -81.1133 117° Southeast 361 415 36,000 -300 Level Jacksonville Center
Sat 02:20:46 PM 29.9064 -81.0356 137° Southeast 361 415 35,400 -500 Descending Jacksonville Center
Sat 02:21:46 PM 29.8042 -81.0400 182° South 326 375 35,000 -200 Descending Jacksonville Center
Sat 02:22:46 PM 29.7042 -81.0561 188° South 340 391 35,000 -50 Level Jacksonville Center
Sat 02:23:46 PM 29.6000 -81.0725 188° South 355 409 34,900 -600 Descending Jacksonville Center
Sat 02:24:46 PM 29.4958 -81.0864 187° South 374 430 33,800 -1,303 Descending Jacksonville Center
Sat 02:27:04 PM 29.2606 -81.0164 165° South 383 441 30,600 -1,455 Descending Miami Center
Sat 02:28:04 PM 29.1614 -80.9864 165° South 383 441 29,000 -1,300 Descending Miami Center
Sat 02:29:04 PM 29.0622 -80.9542 164° South 378 435 28,000 -500 Descending Miami Center
Sat 02:30:04 PM 28.9672 -80.9200 163° South 372 428 28,000  Level Miami Center
Sat 02:31:04 PM 28.8639 -80.8853 164° South 353 406 28,000  Level Miami Center
Sat 02:32:04 PM 28.7689 -80.8536 164° South 353 406 28,000 -50 Level Miami Center
Sat 02:33:04 PM 28.6717 -80.8217 164° South 353 406 27,900 -800 Descending Miami Center
Sat 02:34:04 PM 28.5744 -80.7875 163° South 361 415 26,400 -1,400 Descending Miami Center
Sat 02:35:04 PM 28.4689 -80.7553 165° South 379 436 25,100 -1,100 Descending Miami Center
Sat 02:36:04 PM 28.3678 -80.7189 162° South 385 443 24,200 -550 Descending Miami Center
Sat 02:37:04 PM 28.2664 -80.6847 163° South 385 443 24,000 -300 Descending Miami Center
Sat 02:38:04 PM 28.1692 -80.6531 164° South 370 426 23,600 -1,100 Descending Miami Center
Sat 02:39:04 PM 28.0761 -80.6219 164° South 365 420 21,800 -1,950 Descending Miami Center
Sat 02:40:04 PM 27.9747 -80.5878 163° South 365 420 19,700 -1,800 Descending Miami Center
Sat 02:41:04 PM 27.8794 -80.5567 164° South 365 420 18,200 -1,700 Descending Miami Center
Sat 02:42:04 PM 27.7986 -80.5328 165° South 348 400 16,300 -1,100 Descending Miami Center
Sat 02:43:04 PM 27.6989 -80.5108 169° South 342 394 16,000 -150 Descending Miami Center
Sat 02:44:04 PM 27.6186 -80.5553 206° Southwest 316 364 16,000  Level Miami Center
Sat 02:45:04 PM 27.5564 -80.6233 224° Southwest 315 362 16,000  Level Miami Center
Sat 02:46:04 PM 27.4919 -80.6917 223° Southwest 325 374 16,000  Level Miami Center
Sat 02:47:04 PM 27.4403 -80.7458 223° Southwest 325 374 16,000  Level Miami Center
Sat 02:48:04 PM 27.3586 -80.8319 223° Southwest 325 374 16,000  Level Miami Center
Sat 02:49:04 PM 27.2961 -80.8978 223° Southwest 320 368 16,000 -200 Level Miami Center
Sat 02:50:04 PM 27.2339 -80.9656 224° Southwest 315 362 15,600 -750 Descending Miami Center
Sat 02:51:04 PM 27.1669 -81.0356 223° Southwest 322 371 14,500 -1,000 Descending Miami Center
Sat 02:52:04 PM 27.1067 -81.1011 224° Southwest 331 381 13,600 -1,000 Descending Miami Center
Sat 02:53:04 PM 27.0378 -81.1731 223° Southwest 331 381 12,500 -1,500 Descending Miami Center
Sat 02:54:04 PM 26.9731 -81.2406 223° Southwest 321 369 10,600 -1,250 Descending Miami Center
Sat 02:55:04 PM 26.9150 -81.3014 223° Southwest 302 348 10,000 -300 Descending Miami Center
Sat 02:56:04 PM 26.8525 -81.3617 221° Southwest 296 341 10,000 50 Level Miami Center
Sat 02:57:04 PM 26.7800 -81.4100 211° Southwest 308 354 10,100 50 Climbing Miami Center
Sat 02:58:04 PM 26.6950 -81.4603 208° Southwest 319 367 10,100  Level Miami Center
Sat 02:59:04 PM 26.6206 -81.5039 208° Southwest 309 356 10,100 -400 Level Miami Center
Sat 03:00:04 PM 26.5461 -81.5472 208° Southwest 309 356 9,300 -1,050 Descending Miami Center
Sat 03:01:04 PM 26.4781 -81.5864 207° Southwest 293 337 8,000 -1,300 Descending Miami Center
Sat 03:03:00 PM 26.3307 -81.6722 208° Southwest  Level Estimated
Sat 03:10:00 PM 26.1524 -81.7756 208° Southwest  Level Estimated
Sat 03:11:00 PM 26.1524 -81.7756 36° Northeast  Level Estimated
Sat 03:12:00 PM 26.1524 -81.7756 36° Northeast  Level Estimated
Sat 03:13:00 PM 26.1524 -81.7756 36° Northeast  Level Estimated
Sat 03:14:00 PM 26.1524 -81.7756 36° Northeast  Level Estimated
Sat 03:15:00 PM 26.1524 -81.7756 36° Northeast  Level Estimated
Sat 03:16:00 PM 26.1524 -81.7756 36° Northeast  Level Estimated
Sat 03:17:00 PM 26.1524 -81.7756 36° Northeast  Level Estimated
Sat 03:18:00 PM 26.1524 -81.7756 36° Northeast  Level Estimated

Login

Don't have an account? Register now (free) for customized features, flight alerts, and more!